sensor_id;sensor_type;location;lat;lon;timestamp;temperature;humidity
546;DHT22;259;53.304;9.816;2022-10-17T00:01:06;20.00;91.90
546;DHT22;259;53.304;9.816;2022-10-17T00:03:32;20.00;92.00
546;DHT22;259;53.304;9.816;2022-10-17T00:05:58;19.90;92.00
546;DHT22;259;53.304;9.816;2022-10-17T00:08:28;19.90;92.20
546;DHT22;259;53.304;9.816;2022-10-17T00:11:00;19.80;92.20
546;DHT22;259;53.304;9.816;2022-10-17T00:13:26;19.80;92.30
546;DHT22;259;53.304;9.816;2022-10-17T00:15:52;19.80;92.40
546;DHT22;259;53.304;9.816;2022-10-17T00:18:17;19.70;92.40
546;DHT22;259;53.304;9.816;2022-10-17T00:20:43;19.70;92.50
546;DHT22;259;53.304;9.816;2022-10-17T00:23:09;19.60;92.50
546;DHT22;259;53.304;9.816;2022-10-17T00:25:34;19.60;92.60
546;DHT22;259;53.304;9.816;2022-10-17T00:28:01;19.60;92.70
546;DHT22;259;53.304;9.816;2022-10-17T00:30:27;19.50;92.80
546;DHT22;259;53.304;9.816;2022-10-17T00:32:53;19.50;92.80
546;DHT22;259;53.304;9.816;2022-10-17T00:35:18;19.50;92.90
546;DHT22;259;53.304;9.816;2022-10-17T00:37:44;19.40;92.90
546;DHT22;259;53.304;9.816;2022-10-17T00:40:10;19.40;93.00
546;DHT22;259;53.304;9.816;2022-10-17T00:42:35;19.40;93.00
546;DHT22;259;53.304;9.816;2022-10-17T00:45:12;19.30;93.10
546;DHT22;259;53.304;9.816;2022-10-17T00:47:38;19.30;93.10
546;DHT22;259;53.304;9.816;2022-10-17T00:50:06;19.30;93.20
546;DHT22;259;53.304;9.816;2022-10-17T00:52:32;19.20;93.20
546;DHT22;259;53.304;9.816;2022-10-17T00:55:03;19.30;93.30
546;DHT22;259;53.304;9.816;2022-10-17T00:57:31;19.20;93.30
546;DHT22;259;53.304;9.816;2022-10-17T00:59:58;19.20;93.30
546;DHT22;259;53.304;9.816;2022-10-17T01:02:26;19.10;93.20
546;DHT22;259;53.304;9.816;2022-10-17T01:04:53;19.20;93.40
546;DHT22;259;53.304;9.816;2022-10-17T01:07:21;19.30;93.30
546;DHT22;259;53.304;9.816;2022-10-17T01:09:48;19.60;92.90
546;DHT22;259;53.304;9.816;2022-10-17T01:12:23;19.90;92.40
546;DHT22;259;53.304;9.816;2022-10-17T01:31:13;21.30;88.30
546;DHT22;259;53.304;9.816;2022-10-17T01:38:50;21.20;88.00
546;DHT22;259;53.304;9.816;2022-10-17T01:41:38;21.20;88.20
546;DHT22;259;53.304;9.816;2022-10-17T01:44:20;21.10;88.20
546;DHT22;259;53.304;9.816;2022-10-17T01:46:53;21.10;88.50
546;DHT22;259;53.304;9.816;2022-10-17T01:49:25;21.00;88.50
546;DHT22;259;53.304;9.816;2022-10-17T01:51:57;20.90;88.70
546;DHT22;259;53.304;9.816;2022-10-17T01:56:58;20.80;89.20
546;DHT22;259;53.304;9.816;2022-10-17T01:59:32;20.80;89.60
546;DHT22;259;53.304;9.816;2022-10-17T02:01:59;20.70;89.90
546;DHT22;259;53.304;9.816;2022-10-17T02:04:25;20.60;90.00
546;DHT22;259;53.304;9.816;2022-10-17T02:06:50;20.60;90.10
546;DHT22;259;53.304;9.816;2022-10-17T02:09:22;20.50;90.20
546;DHT22;259;53.304;9.816;2022-10-17T02:18:00;20.30;90.50
546;DHT22;259;53.304;9.816;2022-10-17T02:23:19;20.20;90.70
546;DHT22;259;53.304;9.816;2022-10-17T02:26:09;20.10;90.80
546;DHT22;259;53.304;9.816;2022-10-17T02:29:02;20.00;90.90
546;DHT22;259;53.304;9.816;2022-10-17T02:31:38;20.00;91.00
546;DHT22;259;53.304;9.816;2022-10-17T02:34:12;19.90;91.10
546;DHT22;259;53.304;9.816;2022-10-17T02:36:45;19.90;91.20
546;DHT22;259;53.304;9.816;2022-10-17T02:39:12;19.90;91.30
546;DHT22;259;53.304;9.816;2022-10-17T02:41:39;19.80;91.40
546;DHT22;259;53.304;9.816;2022-10-17T02:44:06;19.80;91.50
546;DHT22;259;53.304;9.816;2022-10-17T02:46:33;19.70;91.50
546;DHT22;259;53.304;9.816;2022-10-17T02:51:44;19.70;91.70
546;DHT22;259;53.304;9.816;2022-10-17T02:54:22;19.60;91.90
546;DHT22;259;53.304;9.816;2022-10-17T02:56:53;19.60;92.10
546;DHT22;259;53.304;9.816;2022-10-17T02:59:21;19.50;92.20
546;DHT22;259;53.304;9.816;2022-10-17T03:01:49;19.50;92.20
546;DHT22;259;53.304;9.816;2022-10-17T03:04:16;19.50;92.40
546;DHT22;259;53.304;9.816;2022-10-17T03:06:43;19.50;92.40
546;DHT22;259;53.304;9.816;2022-10-17T03:09:09;19.40;92.40
546;DHT22;259;53.304;9.816;2022-10-17T03:11:34;19.40;92.50
546;DHT22;259;53.304;9.816;2022-10-17T03:14:00;19.40;92.60
546;DHT22;259;53.304;9.816;2022-10-17T03:16:26;19.30;92.60
546;DHT22;259;53.304;9.816;2022-10-17T03:18:51;19.30;92.70
546;DHT22;259;53.304;9.816;2022-10-17T03:21:17;19.30;93.00
546;DHT22;259;53.304;9.816;2022-10-17T03:23:42;19.30;92.80
546;DHT22;259;53.304;9.816;2022-10-17T03:26:08;19.20;92.80
546;DHT22;259;53.304;9.816;2022-10-17T03:28:33;19.30;92.80
546;DHT22;259;53.304;9.816;2022-10-17T03:31:01;19.40;92.70
546;DHT22;259;53.304;9.816;2022-10-17T03:33:30;19.60;92.30
546;DHT22;259;53.304;9.816;2022-10-17T03:35:55;19.90;91.80
546;DHT22;259;53.304;9.816;2022-10-17T03:38:21;20.30;91.10
546;DHT22;259;53.304;9.816;2022-10-17T03:40:54;20.60;90.40
546;DHT22;259;53.304;9.816;2022-10-17T03:43:20;20.80;89.60
546;DHT22;259;53.304;9.816;2022-10-17T03:45:46;21.00;88.80
546;DHT22;259;53.304;9.816;2022-10-17T03:48:11;21.10;88.10
546;DHT22;259;53.304;9.816;2022-10-17T03:50:37;21.20;87.70
546;DHT22;259;53.304;9.816;2022-10-17T03:53:02;21.30;87.50
546;DHT22;259;53.304;9.816;2022-10-17T03:55:28;21.30;87.30
546;DHT22;259;53.304;9.816;2022-10-17T03:57:53;21.30;87.20
546;DHT22;259;53.304;9.816;2022-10-17T04:00:19;21.20;87.10
546;DHT22;259;53.304;9.816;2022-10-17T04:02:44;21.20;87.10
546;DHT22;259;53.304;9.816;2022-10-17T04:05:10;21.20;87.30
546;DHT22;259;53.304;9.816;2022-10-17T04:07:35;21.10;87.40
546;DHT22;259;53.304;9.816;2022-10-17T04:10:04;21.10;87.60
546;DHT22;259;53.304;9.816;2022-10-17T04:12:30;21.00;87.70
546;DHT22;259;53.304;9.816;2022-10-17T04:14:55;20.90;87.90
546;DHT22;259;53.304;9.816;2022-10-17T04:17:21;20.90;88.20
546;DHT22;259;53.304;9.816;2022-10-17T04:19:48;20.80;88.40
546;DHT22;259;53.304;9.816;2022-10-17T04:22:14;20.80;88.70
546;DHT22;259;53.304;9.816;2022-10-17T04:24:39;20.70;88.90
546;DHT22;259;53.304;9.816;2022-10-17T04:27:05;20.60;89.10
546;DHT22;259;53.304;9.816;2022-10-17T04:29:30;20.60;89.40
546;DHT22;259;53.304;9.816;2022-10-17T04:31:56;20.50;89.60
546;DHT22;259;53.304;9.816;2022-10-17T04:34:21;20.40;89.80
546;DHT22;259;53.304;9.816;2022-10-17T04:36:47;20.40;90.10
546;DHT22;259;53.304;9.816;2022-10-17T04:39:13;20.30;90.10
546;DHT22;259;53.304;9.816;2022-10-17T04:41:38;20.30;90.30
546;DHT22;259;53.304;9.816;2022-10-17T04:44:04;20.20;90.30
546;DHT22;259;53.304;9.816;2022-10-17T04:46:32;20.20;90.50
546;DHT22;259;53.304;9.816;2022-10-17T04:48:57;20.10;90.50
546;DHT22;259;53.304;9.816;2022-10-17T04:51:23;20.10;91.00
546;DHT22;259;53.304;9.816;2022-10-17T04:53:48;20.00;90.70
546;DHT22;259;53.304;9.816;2022-10-17T04:56:17;20.00;90.80
546;DHT22;259;53.304;9.816;2022-10-17T04:58:43;19.90;90.90
546;DHT22;259;53.304;9.816;2022-10-17T05:01:12;19.90;91.00
546;DHT22;259;53.304;9.816;2022-10-17T05:03:38;19.80;91.10
546;DHT22;259;53.304;9.816;2022-10-17T05:06:06;19.70;91.20
546;DHT22;259;53.304;9.816;2022-10-17T05:08:31;19.70;91.30
546;DHT22;259;53.304;9.816;2022-10-17T05:10:57;19.70;91.40
546;DHT22;259;53.304;9.816;2022-10-17T05:13:23;19.70;91.50
546;DHT22;259;53.304;9.816;2022-10-17T05:15:48;19.60;91.50
546;DHT22;259;53.304;9.816;2022-10-17T05:18:14;19.60;91.60
546;DHT22;259;53.304;9.816;2022-10-17T05:20:40;19.50;91.60
546;DHT22;259;53.304;9.816;2022-10-17T05:23:05;19.50;91.80
546;DHT22;259;53.304;9.816;2022-10-17T05:25:31;19.50;91.90
546;DHT22;259;53.304;9.816;2022-10-17T05:27:56;19.40;91.90
546;DHT22;259;53.304;9.816;2022-10-17T05:30:22;19.40;92.00
546;DHT22;259;53.304;9.816;2022-10-17T05:32:51;19.40;92.10
546;DHT22;259;53.304;9.816;2022-10-17T05:35:17;19.30;92.10
546;DHT22;259;53.304;9.816;2022-10-17T05:37:42;19.30;92.20
546;DHT22;259;53.304;9.816;2022-10-17T05:40:08;19.30;92.30
546;DHT22;259;53.304;9.816;2022-10-17T05:42:34;19.30;92.30
546;DHT22;259;53.304;9.816;2022-10-17T05:44:59;19.50;92.30
546;DHT22;259;53.304;9.816;2022-10-17T05:47:25;19.70;91.90
546;DHT22;259;53.304;9.816;2022-10-17T05:49:50;20.00;91.40
546;DHT22;259;53.304;9.816;2022-10-17T05:52:16;20.40;90.80
546;DHT22;259;53.304;9.816;2022-10-17T05:54:41;20.70;90.20
546;DHT22;259;53.304;9.816;2022-10-17T05:57:07;20.90;89.30
546;DHT22;259;53.304;9.816;2022-10-17T05:59:32;21.10;88.50
546;DHT22;259;53.304;9.816;2022-10-17T06:01:58;21.20;87.90
546;DHT22;259;53.304;9.816;2022-10-17T06:04:23;21.30;87.60
546;DHT22;259;53.304;9.816;2022-10-17T06:06:52;21.30;87.20
546;DHT22;259;53.304;9.816;2022-10-17T06:09:18;21.30;87.00
546;DHT22;259;53.304;9.816;2022-10-17T06:11:43;21.30;87.00
546;DHT22;259;53.304;9.816;2022-10-17T06:14:09;21.30;87.10
546;DHT22;259;53.304;9.816;2022-10-17T06:16:34;21.30;87.20
546;DHT22;259;53.304;9.816;2022-10-17T06:19:00;21.20;87.30
546;DHT22;259;53.304;9.816;2022-10-17T06:21:26;21.20;87.50
546;DHT22;259;53.304;9.816;2022-10-17T06:23:52;21.10;87.60
546;DHT22;259;53.304;9.816;2022-10-17T06:26:18;21.10;87.90
546;DHT22;259;53.304;9.816;2022-10-17T06:28:44;21.00;88.10
546;DHT22;259;53.304;9.816;2022-10-17T06:31:12;20.90;88.20
546;DHT22;259;53.304;9.816;2022-10-17T06:33:38;20.90;88.60
546;DHT22;259;53.304;9.816;2022-10-17T06:36:05;20.80;88.70
546;DHT22;259;53.304;9.816;2022-10-17T06:38:33;20.70;89.00
546;DHT22;259;53.304;9.816;2022-10-17T06:41:07;20.70;89.30
546;DHT22;259;53.304;9.816;2022-10-17T06:43:37;20.60;89.60
546;DHT22;259;53.304;9.816;2022-10-17T06:46:04;20.60;89.90
546;DHT22;259;53.304;9.816;2022-10-17T06:48:30;20.50;90.00
546;DHT22;259;53.304;9.816;2022-10-17T06:51:03;20.40;90.10
546;DHT22;259;53.304;9.816;2022-10-17T06:53:31;20.40;90.30
546;DHT22;259;53.304;9.816;2022-10-17T06:55:57;20.30;90.40
546;DHT22;259;53.304;9.816;2022-10-17T06:58:28;20.30;90.50
546;DHT22;259;53.304;9.816;2022-10-17T07:01:01;20.20;90.60
546;DHT22;259;53.304;9.816;2022-10-17T07:03:28;20.20;90.70
546;DHT22;259;53.304;9.816;2022-10-17T07:05:54;20.10;90.80
546;DHT22;259;53.304;9.816;2022-10-17T07:08:20;20.10;90.90
546;DHT22;259;53.304;9.816;2022-10-17T07:10:45;20.00;91.00
546;DHT22;259;53.304;9.816;2022-10-17T07:13:11;20.00;91.10
546;DHT22;259;53.304;9.816;2022-10-17T07:15:37;19.90;91.20
546;DHT22;259;53.304;9.816;2022-10-17T07:18:03;19.90;91.10
546;DHT22;259;53.304;9.816;2022-10-17T07:20:29;19.90;91.50
546;DHT22;259;53.304;9.816;2022-10-17T07:22:54;19.80;91.50
546;DHT22;259;53.304;9.816;2022-10-17T07:25:20;19.80;91.70
546;DHT22;259;53.304;9.816;2022-10-17T07:27:47;19.70;91.70
546;DHT22;259;53.304;9.816;2022-10-17T07:30:13;19.70;91.80
546;DHT22;259;53.304;9.816;2022-10-17T07:32:39;19.70;91.90
546;DHT22;259;53.304;9.816;2022-10-17T07:35:05;19.60;92.00
546;DHT22;259;53.304;9.816;2022-10-17T07:37:31;19.60;91.90
546;DHT22;259;53.304;9.816;2022-10-17T07:39:57;19.50;92.50
546;DHT22;259;53.304;9.816;2022-10-17T07:42:23;19.60;93.30
546;DHT22;259;53.304;9.816;2022-10-17T07:44:48;19.60;93.70
546;DHT22;259;53.304;9.816;2022-10-17T07:47:14;19.60;94.10
546;DHT22;259;53.304;9.816;2022-10-17T07:49:39;19.60;94.30
546;DHT22;259;53.304;9.816;2022-10-17T07:52:14;19.60;94.50
546;DHT22;259;53.304;9.816;2022-10-17T07:54:40;19.60;94.50
546;DHT22;259;53.304;9.816;2022-10-17T07:57:06;19.60;94.60
546;DHT22;259;53.304;9.816;2022-10-17T07:59:32;19.60;94.60
546;DHT22;259;53.304;9.816;2022-10-17T08:01:58;19.60;94.70
546;DHT22;259;53.304;9.816;2022-10-17T08:04:24;19.60;94.60
546;DHT22;259;53.304;9.816;2022-10-17T08:06:50;19.60;94.60
546;DHT22;259;53.304;9.816;2022-10-17T08:09:16;19.60;94.50
546;DHT22;259;53.304;9.816;2022-10-17T08:11:41;19.60;94.20
546;DHT22;259;53.304;9.816;2022-10-17T08:14:09;19.60;94.70
546;DHT22;259;53.304;9.816;2022-10-17T08:16:35;19.60;94.90
546;DHT22;259;53.304;9.816;2022-10-17T08:19:01;19.60;94.90
546;DHT22;259;53.304;9.816;2022-10-17T08:21:26;19.60;94.80
546;DHT22;259;53.304;9.816;2022-10-17T08:23:52;19.60;94.70
546;DHT22;259;53.304;9.816;2022-10-17T08:26:18;19.60;94.90
546;DHT22;259;53.304;9.816;2022-10-17T08:28:44;19.60;94.90
546;DHT22;259;53.304;9.816;2022-10-17T08:31:16;19.60;95.10
546;DHT22;259;53.304;9.816;2022-10-17T08:33:45;19.60;95.00
546;DHT22;259;53.304;9.816;2022-10-17T08:36:16;19.60;95.00
546;DHT22;259;53.304;9.816;2022-10-17T08:38:42;19.60;94.90
546;DHT22;259;53.304;9.816;2022-10-17T08:41:41;19.60;94.90
546;DHT22;259;53.304;9.816;2022-10-17T08:46:55;19.60;94.90
546;DHT22;259;53.304;9.816;2022-10-17T08:49:32;19.60;95.00
546;DHT22;259;53.304;9.816;2022-10-17T08:52:10;19.60;95.10
546;DHT22;259;53.304;9.816;2022-10-17T08:54:45;19.60;95.20
546;DHT22;259;53.304;9.816;2022-10-17T08:57:13;19.60;95.60
546;DHT22;259;53.304;9.816;2022-10-17T08:59:40;19.60;95.40
546;DHT22;259;53.304;9.816;2022-10-17T09:08:13;19.70;95.20
546;DHT22;259;53.304;9.816;2022-10-17T09:10:53;19.60;95.20
546;DHT22;259;53.304;9.816;2022-10-17T09:16:29;19.70;95.60
546;DHT22;259;53.304;9.816;2022-10-17T09:21:52;19.70;95.50
546;DHT22;259;53.304;9.816;2022-10-17T09:27:03;19.70;96.30
546;DHT22;259;53.304;9.816;2022-10-17T09:29:30;19.80;96.30
546;DHT22;259;53.304;9.816;2022-10-17T09:32:25;19.80;96.60
546;DHT22;259;53.304;9.816;2022-10-17T09:34:52;19.80;96.40
546;DHT22;259;53.304;9.816;2022-10-17T09:37:18;19.90;96.00
546;DHT22;259;53.304;9.816;2022-10-17T09:39:47;19.80;95.80
546;DHT22;259;53.304;9.816;2022-10-17T09:42:14;19.80;96.00
546;DHT22;259;53.304;9.816;2022-10-17T09:44:50;19.90;96.10
546;DHT22;259;53.304;9.816;2022-10-17T09:50:32;19.90;95.80
546;DHT22;259;53.304;9.816;2022-10-17T09:53:04;19.90;95.80
546;DHT22;259;53.304;9.816;2022-10-17T09:55:45;19.90;95.90
546;DHT22;259;53.304;9.816;2022-10-17T09:58:13;19.90;95.90
546;DHT22;259;53.304;9.816;2022-10-17T10:00:44;19.90;95.90
546;DHT22;259;53.304;9.816;2022-10-17T10:05:39;20.00;95.90
546;DHT22;259;53.304;9.816;2022-10-17T10:08:15;20.00;95.90
546;DHT22;259;53.304;9.816;2022-10-17T10:10:42;20.00;95.80
546;DHT22;259;53.304;9.816;2022-10-17T10:15:38;20.00;95.70
546;DHT22;259;53.304;9.816;2022-10-17T10:18:34;20.00;95.50
546;DHT22;259;53.304;9.816;2022-10-17T10:21:06;20.00;95.50
546;DHT22;259;53.304;9.816;2022-10-17T10:23:32;20.00;95.50
546;DHT22;259;53.304;9.816;2022-10-17T10:26:02;20.00;95.40
546;DHT22;259;53.304;9.816;2022-10-17T10:28:30;20.00;95.40
546;DHT22;259;53.304;9.816;2022-10-17T10:31:01;20.00;95.30
546;DHT22;259;53.304;9.816;2022-10-17T10:33:29;20.00;95.30
546;DHT22;259;53.304;9.816;2022-10-17T10:36:02;20.00;95.70
546;DHT22;259;53.304;9.816;2022-10-17T10:38:30;20.00;95.60
546;DHT22;259;53.304;9.816;2022-10-17T10:41:07;20.00;95.60
546;DHT22;259;53.304;9.816;2022-10-17T10:43:41;20.00;95.50
546;DHT22;259;53.304;9.816;2022-10-17T10:46:27;20.00;95.50
546;DHT22;259;53.304;9.816;2022-10-17T10:48:59;20.00;95.70
546;DHT22;259;53.304;9.816;2022-10-17T10:51:41;20.00;96.10
546;DHT22;259;53.304;9.816;2022-10-17T10:54:22;20.00;95.80
546;DHT22;259;53.304;9.816;2022-10-17T10:56:54;20.00;95.90
546;DHT22;259;53.304;9.816;2022-10-17T11:00:11;20.00;96.10
546;DHT22;259;53.304;9.816;2022-10-17T11:02:34;20.00;96.00
546;DHT22;259;53.304;9.816;2022-10-17T11:14:13;19.90;96.10
546;DHT22;259;53.304;9.816;2022-10-17T11:22:14;19.90;96.10
546;DHT22;259;53.304;9.816;2022-10-17T11:27:09;19.90;96.50
546;DHT22;259;53.304;9.816;2022-10-17T11:29:38;20.00;96.60
546;DHT22;259;53.304;9.816;2022-10-17T11:32:14;20.10;96.70
546;DHT22;259;53.304;9.816;2022-10-17T11:34:52;20.20;96.70
546;DHT22;259;53.304;9.816;2022-10-17T11:37:24;20.30;96.70
546;DHT22;259;53.304;9.816;2022-10-17T11:40:01;20.30;96.80
546;DHT22;259;53.304;9.816;2022-10-17T11:42:34;20.30;97.30
546;DHT22;259;53.304;9.816;2022-10-17T11:45:11;20.30;97.20
546;DHT22;259;53.304;9.816;2022-10-17T11:47:43;20.30;97.50
546;DHT22;259;53.304;9.816;2022-10-17T11:50:31;20.30;97.60
546;DHT22;259;53.304;9.816;2022-10-17T11:53:04;20.30;97.90
546;DHT22;259;53.304;9.816;2022-10-17T11:55:33;20.30;98.20
546;DHT22;259;53.304;9.816;2022-10-17T11:58:28;20.40;98.40
546;DHT22;259;53.304;9.816;2022-10-17T12:01:31;20.40;98.40
546;DHT22;259;53.304;9.816;2022-10-17T12:07:03;20.40;98.80
546;DHT22;259;53.304;9.816;2022-10-17T12:12:25;20.40;98.90
546;DHT22;259;53.304;9.816;2022-10-17T12:14:51;20.40;99.00
546;DHT22;259;53.304;9.816;2022-10-17T12:17:31;20.40;99.10
546;DHT22;259;53.304;9.816;2022-10-17T12:25:57;20.40;99.10
546;DHT22;259;53.304;9.816;2022-10-17T12:31:07;20.40;99.00
546;DHT22;259;53.304;9.816;2022-10-17T12:33:54;20.40;99.00
546;DHT22;259;53.304;9.816;2022-10-17T12:49:39;20.30;98.90
546;DHT22;259;53.304;9.816;2022-10-17T12:55:04;20.20;99.30
546;DHT22;259;53.304;9.816;2022-10-17T12:57:55;20.30;99.60
546;DHT22;259;53.304;9.816;2022-10-17T13:03:20;20.30;99.70
546;DHT22;259;53.304;9.816;2022-10-17T13:05:49;20.30;99.70
546;DHT22;259;53.304;9.816;2022-10-17T13:08:21;20.20;99.60
546;DHT22;259;53.304;9.816;2022-10-17T13:10:50;20.20;99.40
546;DHT22;259;53.304;9.816;2022-10-17T13:13:20;20.20;99.30
546;DHT22;259;53.304;9.816;2022-10-17T13:15:52;20.20;99.30
546;DHT22;259;53.304;9.816;2022-10-17T13:18:24;20.20;99.20
546;DHT22;259;53.304;9.816;2022-10-17T13:21:03;20.10;99.10
546;DHT22;259;53.304;9.816;2022-10-17T13:23:32;20.10;99.00
546;DHT22;259;53.304;9.816;2022-10-17T13:28:31;20.10;98.90
546;DHT22;259;53.304;9.816;2022-10-17T13:30:56;20.10;98.90
546;DHT22;259;53.304;9.816;2022-10-17T13:35:57;20.10;98.90
546;DHT22;259;53.304;9.816;2022-10-17T13:38:25;20.10;98.90
546;DHT22;259;53.304;9.816;2022-10-17T13:40:52;20.00;98.80
546;DHT22;259;53.304;9.816;2022-10-17T13:43:19;20.00;98.80
546;DHT22;259;53.304;9.816;2022-10-17T13:45:52;20.00;98.80
546;DHT22;259;53.304;9.816;2022-10-17T13:48:24;20.00;98.80
546;DHT22;259;53.304;9.816;2022-10-17T13:50:52;20.00;98.90
546;DHT22;259;53.304;9.816;2022-10-17T13:53:35;19.90;98.90
546;DHT22;259;53.304;9.816;2022-10-17T13:56:05;19.90;98.80
546;DHT22;259;53.304;9.816;2022-10-17T13:58:43;19.90;98.80
546;DHT22;259;53.304;9.816;2022-10-17T14:01:09;19.90;98.90
546;DHT22;259;53.304;9.816;2022-10-17T14:03:36;19.90;98.80
546;DHT22;259;53.304;9.816;2022-10-17T14:06:21;19.90;98.80
546;DHT22;259;53.304;9.816;2022-10-17T14:11:26;19.90;98.80
546;DHT22;259;53.304;9.816;2022-10-17T14:13:54;19.90;98.80
546;DHT22;259;53.304;9.816;2022-10-17T14:16:22;19.90;98.80
546;DHT22;259;53.304;9.816;2022-10-17T14:18:48;19.80;98.70
546;DHT22;259;53.304;9.816;2022-10-17T14:21:33;19.90;98.80
546;DHT22;259;53.304;9.816;2022-10-17T14:26:52;19.80;98.80
546;DHT22;259;53.304;9.816;2022-10-17T14:29:31;19.80;98.80
546;DHT22;259;53.304;9.816;2022-10-17T14:34:36;19.80;98.80
546;DHT22;259;53.304;9.816;2022-10-17T14:37:12;19.80;98.80
546;DHT22;259;53.304;9.816;2022-10-17T14:39:49;19.80;98.80
546;DHT22;259;53.304;9.816;2022-10-17T14:42:21;19.80;98.80
546;DHT22;259;53.304;9.816;2022-10-17T14:44:52;19.80;98.80
546;DHT22;259;53.304;9.816;2022-10-17T14:47:24;19.80;98.80
546;DHT22;259;53.304;9.816;2022-10-17T14:50:03;19.70;98.80
546;DHT22;259;53.304;9.816;2022-10-17T14:52:30;19.70;98.80
546;DHT22;259;53.304;9.816;2022-10-17T14:54:58;19.70;98.80
546;DHT22;259;53.304;9.816;2022-10-17T14:59:57;19.70;98.80
546;DHT22;259;53.304;9.816;2022-10-17T15:02:28;19.70;98.80
546;DHT22;259;53.304;9.816;2022-10-17T15:04:53;19.70;98.80
546;DHT22;259;53.304;9.816;2022-10-17T15:07:19;19.70;98.80
546;DHT22;259;53.304;9.816;2022-10-17T15:09:49;19.70;98.80
546;DHT22;259;53.304;9.816;2022-10-17T15:12:18;19.70;98.80
546;DHT22;259;53.304;9.816;2022-10-17T15:14:44;19.70;98.80
546;DHT22;259;53.304;9.816;2022-10-17T15:17:16;19.60;98.80
546;DHT22;259;53.304;9.816;2022-10-17T15:19:43;19.60;98.80
546;DHT22;259;53.304;9.816;2022-10-17T15:22:08;19.60;98.80
546;DHT22;259;53.304;9.816;2022-10-17T15:24:34;19.60;98.80
546;DHT22;259;53.304;9.816;2022-10-17T15:27:00;19.60;98.80
546;DHT22;259;53.304;9.816;2022-10-17T15:29:25;19.60;98.80
546;DHT22;259;53.304;9.816;2022-10-17T15:31:51;19.60;98.80
546;DHT22;259;53.304;9.816;2022-10-17T15:34:16;19.60;98.80
546;DHT22;259;53.304;9.816;2022-10-17T15:36:48;19.60;98.80
546;DHT22;259;53.304;9.816;2022-10-17T15:39:14;19.60;98.80
546;DHT22;259;53.304;9.816;2022-10-17T15:41:39;19.60;98.80
546;DHT22;259;53.304;9.816;2022-10-17T15:44:05;19.60;98.80
546;DHT22;259;53.304;9.816;2022-10-17T15:46:32;19.60;98.80
546;DHT22;259;53.304;9.816;2022-10-17T15:49:03;19.60;98.80
546;DHT22;259;53.304;9.816;2022-10-17T15:51:30;19.60;98.80
546;DHT22;259;53.304;9.816;2022-10-17T15:53:55;19.60;98.80
546;DHT22;259;53.304;9.816;2022-10-17T15:56:23;19.60;98.80
546;DHT22;259;53.304;9.816;2022-10-17T15:58:50;19.50;98.80
546;DHT22;259;53.304;9.816;2022-10-17T16:01:24;19.50;98.80
546;DHT22;259;53.304;9.816;2022-10-17T16:03:50;19.50;98.80
546;DHT22;259;53.304;9.816;2022-10-17T16:06:19;19.50;98.80
546;DHT22;259;53.304;9.816;2022-10-17T16:08:46;19.50;98.80
546;DHT22;259;53.304;9.816;2022-10-17T16:11:31;19.50;98.80
546;DHT22;259;53.304;9.816;2022-10-17T16:14:00;19.50;98.90
546;DHT22;259;53.304;9.816;2022-10-17T16:16:26;19.50;98.90
546;DHT22;259;53.304;9.816;2022-10-17T16:18:51;19.50;98.90
546;DHT22;259;53.304;9.816;2022-10-17T16:21:18;19.50;98.90
546;DHT22;259;53.304;9.816;2022-10-17T16:23:45;19.50;98.90
546;DHT22;259;53.304;9.816;2022-10-17T16:26:10;19.50;98.90
546;DHT22;259;53.304;9.816;2022-10-17T16:28:40;19.50;98.90
546;DHT22;259;53.304;9.816;2022-10-17T16:31:25;19.50;98.90
546;DHT22;259;53.304;9.816;2022-10-17T16:33:54;19.40;98.80
546;DHT22;259;53.304;9.816;2022-10-17T16:36:20;19.40;98.80
546;DHT22;259;53.304;9.816;2022-10-17T16:38:47;19.40;98.80
546;DHT22;259;53.304;9.816;2022-10-17T16:41:22;19.40;98.90
546;DHT22;259;53.304;9.816;2022-10-17T16:43:49;19.40;98.90
546;DHT22;259;53.304;9.816;2022-10-17T16:46:15;19.40;98.90
546;DHT22;259;53.304;9.816;2022-10-17T16:48:42;19.40;98.90
546;DHT22;259;53.304;9.816;2022-10-17T16:51:09;19.40;98.90
546;DHT22;259;53.304;9.816;2022-10-17T16:53:35;19.40;98.90
546;DHT22;259;53.304;9.816;2022-10-17T16:56:05;19.40;98.90
546;DHT22;259;53.304;9.816;2022-10-17T16:58:31;19.40;99.30
546;DHT22;259;53.304;9.816;2022-10-17T17:01:05;19.40;98.90
546;DHT22;259;53.304;9.816;2022-10-17T17:03:38;19.40;99.00
546;DHT22;259;53.304;9.816;2022-10-17T17:06:05;19.40;99.00
546;DHT22;259;53.304;9.816;2022-10-17T17:08:32;19.40;99.00
546;DHT22;259;53.304;9.816;2022-10-17T17:10:57;19.40;98.90
546;DHT22;259;53.304;9.816;2022-10-17T17:13:24;19.40;99.20
546;DHT22;259;53.304;9.816;2022-10-17T17:15:50;19.40;98.90
546;DHT22;259;53.304;9.816;2022-10-17T17:18:21;19.40;98.90
546;DHT22;259;53.304;9.816;2022-10-17T17:20:47;19.40;98.90
546;DHT22;259;53.304;9.816;2022-10-17T17:23:13;19.40;98.90
546;DHT22;259;53.304;9.816;2022-10-17T17:25:39;19.40;98.90
546;DHT22;259;53.304;9.816;2022-10-17T17:28:05;19.30;98.90
546;DHT22;259;53.304;9.816;2022-10-17T17:30:34;19.40;98.90
546;DHT22;259;53.304;9.816;2022-10-17T17:33:00;19.30;98.90
546;DHT22;259;53.304;9.816;2022-10-17T17:35:27;19.30;98.90
546;DHT22;259;53.304;9.816;2022-10-17T17:37:52;19.30;98.90
546;DHT22;259;53.304;9.816;2022-10-17T17:40:18;19.30;98.90
546;DHT22;259;53.304;9.816;2022-10-17T17:42:43;19.30;98.90
546;DHT22;259;53.304;9.816;2022-10-17T17:45:09;19.30;98.90
546;DHT22;259;53.304;9.816;2022-10-17T17:47:35;19.30;98.90
546;DHT22;259;53.304;9.816;2022-10-17T17:50:01;19.30;98.90
546;DHT22;259;53.304;9.816;2022-10-17T17:52:27;19.30;98.90
546;DHT22;259;53.304;9.816;2022-10-17T17:54:54;19.30;99.00
546;DHT22;259;53.304;9.816;2022-10-17T17:57:19;19.30;99.00
546;DHT22;259;53.304;9.816;2022-10-17T17:59:45;19.30;99.00
546;DHT22;259;53.304;9.816;2022-10-17T18:02:12;19.30;99.00
546;DHT22;259;53.304;9.816;2022-10-17T18:04:38;19.30;99.00
546;DHT22;259;53.304;9.816;2022-10-17T18:07:04;19.20;98.90
546;DHT22;259;53.304;9.816;2022-10-17T18:09:29;19.20;98.90
546;DHT22;259;53.304;9.816;2022-10-17T18:11:55;19.20;98.90
546;DHT22;259;53.304;9.816;2022-10-17T18:14:20;19.20;99.00
546;DHT22;259;53.304;9.816;2022-10-17T18:16:48;19.20;99.00
546;DHT22;259;53.304;9.816;2022-10-17T18:19:14;19.20;99.00
546;DHT22;259;53.304;9.816;2022-10-17T18:21:40;19.20;99.00
546;DHT22;259;53.304;9.816;2022-10-17T18:24:06;19.20;99.00
546;DHT22;259;53.304;9.816;2022-10-17T18:26:32;19.20;99.00
546;DHT22;259;53.304;9.816;2022-10-17T18:28:58;19.20;99.00
546;DHT22;259;53.304;9.816;2022-10-17T18:31:24;19.20;99.10
546;DHT22;259;53.304;9.816;2022-10-17T18:33:57;19.20;99.00
546;DHT22;259;53.304;9.816;2022-10-17T18:36:24;19.20;99.10
546;DHT22;259;53.304;9.816;2022-10-17T18:38:53;19.20;99.10
546;DHT22;259;53.304;9.816;2022-10-17T18:41:21;19.20;99.10
546;DHT22;259;53.304;9.816;2022-10-17T18:43:48;19.20;99.00
546;DHT22;259;53.304;9.816;2022-10-17T18:46:22;19.20;99.00
546;DHT22;259;53.304;9.816;2022-10-17T18:48:49;19.20;99.00
546;DHT22;259;53.304;9.816;2022-10-17T18:51:16;19.20;99.00
546;DHT22;259;53.304;9.816;2022-10-17T18:53:44;19.20;99.00